sensor_id;sensor_type;location;lat;lon;timestamp;pressure;altitude;pressure_sealevel;temperature;humidity
20889;BME280;10604;51.976;7.594;2023-06-22T00:00:29;101097.81;;;28.43;46.55
20889;BME280;10604;51.976;7.594;2023-06-22T00:02:54;101096.44;;;28.57;46.47
20889;BME280;10604;51.976;7.594;2023-06-22T00:05:20;101089.75;;;28.52;46.60
20889;BME280;10604;51.976;7.594;2023-06-22T00:10:48;101091.50;;;28.88;46.14
20889;BME280;10604;51.976;7.594;2023-06-22T00:13:14;101100.03;;;28.93;45.79
20889;BME280;10604;51.976;7.594;2023-06-22T00:15:41;101089.59;;;28.98;45.71
20889;BME280;10604;51.976;7.594;2023-06-22T00:18:06;101088.50;;;28.64;46.11
20889;BME280;10604;51.976;7.594;2023-06-22T00:20:32;101085.72;;;28.01;47.21
20889;BME280;10604;51.976;7.594;2023-06-22T00:22:58;101069.28;;;28.39;46.74
20889;BME280;10604;51.976;7.594;2023-06-22T00:25:23;101076.09;;;27.89;48.20
20889;BME280;10604;51.976;7.594;2023-06-22T00:27:49;101072.03;;;27.65;48.75
20889;BME280;10604;51.976;7.594;2023-06-22T00:30:18;101058.44;;;27.75;48.66
20889;BME280;10604;51.976;7.594;2023-06-22T00:32:43;101060.69;;;27.80;48.60
20889;BME280;10604;51.976;7.594;2023-06-22T00:35:09;101067.31;;;27.67;48.89
20889;BME280;10604;51.976;7.594;2023-06-22T00:37:38;101068.69;;;27.81;48.62
20889;BME280;10604;51.976;7.594;2023-06-22T00:40:05;101070.25;;;27.84;48.52
20889;BME280;10604;51.976;7.594;2023-06-22T00:42:33;101069.66;;;27.90;48.20
20889;BME280;10604;51.976;7.594;2023-06-22T00:44:58;101075.09;;;27.90;48.45
20889;BME280;10604;51.976;7.594;2023-06-22T00:47:24;101072.97;;;27.84;48.42
20889;BME280;10604;51.976;7.594;2023-06-22T00:49:49;101077.28;;;27.77;48.97
20889;BME280;10604;51.976;7.594;2023-06-22T00:52:16;101070.34;;;27.45;49.23
20889;BME280;10604;51.976;7.594;2023-06-22T00:54:49;101070.38;;;27.92;48.51
20889;BME280;10604;51.976;7.594;2023-06-22T00:57:15;101063.84;;;27.85;48.86
20889;BME280;10604;51.976;7.594;2023-06-22T00:59:42;101063.28;;;27.72;48.45
20889;BME280;10604;51.976;7.594;2023-06-22T01:02:07;101066.50;;;27.48;49.11
20889;BME280;10604;51.976;7.594;2023-06-22T01:04:36;101070.66;;;27.42;49.79
20889;BME280;10604;51.976;7.594;2023-06-22T01:07:04;101065.69;;;27.28;49.61
20889;BME280;10604;51.976;7.594;2023-06-22T01:09:35;101057.88;;;27.72;49.50
20889;BME280;10604;51.976;7.594;2023-06-22T01:12:08;101059.28;;;27.76;49.23
20889;BME280;10604;51.976;7.594;2023-06-22T01:14:38;101061.91;;;27.67;48.83
20889;BME280;10604;51.976;7.594;2023-06-22T01:17:07;101061.53;;;27.90;48.98
20889;BME280;10604;51.976;7.594;2023-06-22T01:22:06;101073.16;;;28.00;48.29
20889;BME280;10604;51.976;7.594;2023-06-22T01:25:25;101075.00;;;27.72;48.68
20889;BME280;10604;51.976;7.594;2023-06-22T01:29:51;101064.41;;;27.79;49.07
20889;BME280;10604;51.976;7.594;2023-06-22T01:32:17;101062.78;;;28.23;48.25
20889;BME280;10604;51.976;7.594;2023-06-22T01:34:43;101060.75;;;27.70;49.16
20889;BME280;10604;51.976;7.594;2023-06-22T01:37:09;101063.84;;;27.85;48.70
20889;BME280;10604;51.976;7.594;2023-06-22T01:39:34;101062.22;;;27.45;49.15
20889;BME280;10604;51.976;7.594;2023-06-22T01:42:00;101061.41;;;27.35;50.18
20889;BME280;10604;51.976;7.594;2023-06-22T01:44:25;101068.34;;;27.94;48.37
20889;BME280;10604;51.976;7.594;2023-06-22T01:46:51;101066.22;;;27.41;50.01
20889;BME280;10604;51.976;7.594;2023-06-22T01:49:17;101061.13;;;27.19;50.74
20889;BME280;10604;51.976;7.594;2023-06-22T01:51:43;101054.31;;;27.05;50.77
20889;BME280;10604;51.976;7.594;2023-06-22T01:54:08;101062.00;;;27.10;51.02
20889;BME280;10604;51.976;7.594;2023-06-22T01:56:34;101053.72;;;27.11;51.00
20889;BME280;10604;51.976;7.594;2023-06-22T02:01:28;101047.16;;;27.23;51.04
20889;BME280;10604;51.976;7.594;2023-06-22T02:04:02;101048.53;;;27.56;50.10
20889;BME280;10604;51.976;7.594;2023-06-22T02:06:30;101062.22;;;27.36;50.86
20889;BME280;10604;51.976;7.594;2023-06-22T02:09:00;101060.28;;;27.09;51.45
20889;BME280;10604;51.976;7.594;2023-06-22T02:11:27;101062.53;;;27.23;51.38
20889;BME280;10604;51.976;7.594;2023-06-22T02:13:54;101059.72;;;26.96;51.66
20889;BME280;10604;51.976;7.594;2023-06-22T02:16:20;101060.84;;;27.22;51.40
20889;BME280;10604;51.976;7.594;2023-06-22T02:18:48;101065.72;;;26.99;51.34
20889;BME280;10604;51.976;7.594;2023-06-22T02:21:20;101058.88;;;27.05;51.35
20889;BME280;10604;51.976;7.594;2023-06-22T02:23:46;101058.56;;;27.08;51.85
20889;BME280;10604;51.976;7.594;2023-06-22T02:26:11;101060.00;;;27.12;51.71
20889;BME280;10604;51.976;7.594;2023-06-22T02:28:36;101059.69;;;27.15;51.34
20889;BME280;10604;51.976;7.594;2023-06-22T02:31:02;101056.75;;;26.99;52.00
20889;BME280;10604;51.976;7.594;2023-06-22T02:33:27;101060.03;;;26.93;52.07
20889;BME280;10604;51.976;7.594;2023-06-22T02:35:53;101056.59;;;27.00;51.96
20889;BME280;10604;51.976;7.594;2023-06-22T02:38:19;101061.28;;;27.27;51.55
20889;BME280;10604;51.976;7.594;2023-06-22T02:40:45;101060.28;;;27.09;51.86
20889;BME280;10604;51.976;7.594;2023-06-22T02:43:10;101055.13;;;27.25;51.25
20889;BME280;10604;51.976;7.594;2023-06-22T02:45:35;101054.03;;;26.99;51.89
20889;BME280;10604;51.976;7.594;2023-06-22T02:48:00;101065.69;;;27.09;52.01
20889;BME280;10604;51.976;7.594;2023-06-22T02:50:25;101061.44;;;26.97;51.87
20889;BME280;10604;51.976;7.594;2023-06-22T02:52:51;101059.72;;;26.96;51.97
20889;BME280;10604;51.976;7.594;2023-06-22T02:55:16;101057.72;;;26.88;52.24
20889;BME280;10604;51.976;7.594;2023-06-22T02:57:41;101054.91;;;26.89;52.22
20889;BME280;10604;51.976;7.594;2023-06-22T03:00:09;101041.03;;;27.12;52.15
20889;BME280;10604;51.976;7.594;2023-06-22T03:02:45;101048.72;;;27.26;51.68
20889;BME280;10604;51.976;7.594;2023-06-22T03:05:11;101046.91;;;26.98;51.75
20889;BME280;10604;51.976;7.594;2023-06-22T03:07:39;101049.16;;;26.73;52.57
20889;BME280;10604;51.976;7.594;2023-06-22T03:10:04;101040.91;;;26.75;52.64
20889;BME280;10604;51.976;7.594;2023-06-22T03:12:29;101045.78;;;26.91;52.30
20889;BME280;10604;51.976;7.594;2023-06-22T03:14:55;101046.19;;;27.05;51.82
20889;BME280;10604;51.976;7.594;2023-06-22T03:19:48;101046.06;;;26.97;52.01
20889;BME280;10604;51.976;7.594;2023-06-22T03:22:13;101043.44;;;27.24;51.63
20889;BME280;10604;51.976;7.594;2023-06-22T03:24:40;101036.66;;;26.92;52.08
20889;BME280;10604;51.976;7.594;2023-06-22T03:27:05;101041.03;;;26.83;52.26
20889;BME280;10604;51.976;7.594;2023-06-22T03:29:32;101033.47;;;26.86;52.41
20889;BME280;10604;51.976;7.594;2023-06-22T03:31:57;101033.19;;;26.80;52.22
20889;BME280;10604;51.976;7.594;2023-06-22T03:34:22;101043.47;;;26.96;51.73
20889;BME280;10604;51.976;7.594;2023-06-22T03:36:48;101038.06;;;26.76;52.73
20889;BME280;10604;51.976;7.594;2023-06-22T03:39:13;101039.75;;;27.16;51.63
20889;BME280;10604;51.976;7.594;2023-06-22T03:41:38;101042.06;;;26.92;52.07
20889;BME280;10604;51.976;7.594;2023-06-22T03:44:04;101040.78;;;26.96;52.41
20889;BME280;10604;51.976;7.594;2023-06-22T03:46:29;101040.50;;;26.99;52.13
20889;BME280;10604;51.976;7.594;2023-06-22T03:48:54;101046.47;;;26.83;52.54
20889;BME280;10604;51.976;7.594;2023-06-22T03:51:20;101050.34;;;27.00;52.19
20889;BME280;10604;51.976;7.594;2023-06-22T03:53:45;101038.06;;;26.96;52.10
20889;BME280;10604;51.976;7.594;2023-06-22T03:56:10;101047.13;;;27.33;51.42
20889;BME280;10604;51.976;7.594;2023-06-22T03:58:35;101045.75;;;27.10;51.98
20889;BME280;10604;51.976;7.594;2023-06-22T04:01:01;101038.38;;;26.93;52.55
20889;BME280;10604;51.976;7.594;2023-06-22T04:03:27;101042.03;;;26.72;52.95
20889;BME280;10604;51.976;7.594;2023-06-22T04:05:52;101041.78;;;26.95;52.57
20889;BME280;10604;51.976;7.594;2023-06-22T04:08:17;101042.59;;;27.24;52.04
20889;BME280;10604;51.976;7.594;2023-06-22T04:10:42;101041.72;;;27.33;51.29
20889;BME280;10604;51.976;7.594;2023-06-22T04:13:08;101028.91;;;27.25;51.74
20889;BME280;10604;51.976;7.594;2023-06-22T04:15:33;101024.03;;;27.29;51.81
20889;BME280;10604;51.976;7.594;2023-06-22T04:17:59;101024.91;;;27.20;51.74
20889;BME280;10604;51.976;7.594;2023-06-22T04:20:24;101023.53;;;26.97;52.54
20889;BME280;10604;51.976;7.594;2023-06-22T04:22:53;101030.34;;;27.20;51.62
20889;BME280;10604;51.976;7.594;2023-06-22T04:25:18;101035.25;;;27.53;50.97
20889;BME280;10604;51.976;7.594;2023-06-22T04:27:45;101030.94;;;27.60;50.78
20889;BME280;10604;51.976;7.594;2023-06-22T04:30:10;101022.16;;;27.29;51.54
20889;BME280;10604;51.976;7.594;2023-06-22T04:32:35;101023.47;;;27.35;51.40
20889;BME280;10604;51.976;7.594;2023-06-22T04:35:04;101029.34;;;27.67;50.43
20889;BME280;10604;51.976;7.594;2023-06-22T04:37:31;101030.47;;;27.75;50.16
20889;BME280;10604;51.976;7.594;2023-06-22T04:39:56;101032.19;;;27.76;50.48
20889;BME280;10604;51.976;7.594;2023-06-22T04:42:22;101023.06;;;27.67;50.41
20889;BME280;10604;51.976;7.594;2023-06-22T04:44:47;101025.13;;;28.10;49.75
20889;BME280;10604;51.976;7.594;2023-06-22T04:47:12;101021.56;;;28.19;49.31
20889;BME280;10604;51.976;7.594;2023-06-22T04:49:37;101026.75;;;28.66;48.02
20889;BME280;10604;51.976;7.594;2023-06-22T04:52:04;101025.03;;;28.65;47.73
20889;BME280;10604;51.976;7.594;2023-06-22T04:54:30;101025.22;;;28.46;48.33
20889;BME280;10604;51.976;7.594;2023-06-22T04:56:58;101023.19;;;28.48;48.25
20889;BME280;10604;51.976;7.594;2023-06-22T04:59:23;101016.81;;;28.57;48.22
20889;BME280;10604;51.976;7.594;2023-06-22T05:01:54;101022.25;;;28.57;47.88
20889;BME280;10604;51.976;7.594;2023-06-22T05:04:19;101021.66;;;28.63;47.83
20889;BME280;10604;51.976;7.594;2023-06-22T05:06:45;101026.84;;;28.56;47.95
20889;BME280;10604;51.976;7.594;2023-06-22T05:09:10;101015.19;;;28.99;47.09
20889;BME280;10604;51.976;7.594;2023-06-22T05:11:37;101011.66;;;28.63;47.73
20889;BME280;10604;51.976;7.594;2023-06-22T05:14:02;101010.16;;;28.87;47.55
20889;BME280;10604;51.976;7.594;2023-06-22T05:16:28;101010.25;;;28.41;47.98
20889;BME280;10604;51.976;7.594;2023-06-22T05:18:53;101006.75;;;28.67;47.71
20889;BME280;10604;51.976;7.594;2023-06-22T05:21:22;101007.03;;;28.99;47.26
20889;BME280;10604;51.976;7.594;2023-06-22T05:23:48;101001.56;;;28.91;46.91
20889;BME280;10604;51.976;7.594;2023-06-22T05:26:13;101002.94;;;29.21;46.53
20889;BME280;10604;51.976;7.594;2023-06-22T05:28:39;101009.16;;;29.13;46.93
20889;BME280;10604;51.976;7.594;2023-06-22T05:31:04;101007.38;;;28.96;47.21
20889;BME280;10604;51.976;7.594;2023-06-22T05:33:30;101007.31;;;29.14;46.76
20889;BME280;10604;51.976;7.594;2023-06-22T05:35:55;101003.63;;;29.49;46.03
20889;BME280;10604;51.976;7.594;2023-06-22T05:38:21;101005.28;;;29.68;45.88
20889;BME280;10604;51.976;7.594;2023-06-22T05:40:46;101007.06;;;29.51;45.87
20889;BME280;10604;51.976;7.594;2023-06-22T05:43:11;101016.06;;;30.19;45.02
20889;BME280;10604;51.976;7.594;2023-06-22T05:45:36;101012.59;;;30.09;44.63
20889;BME280;10604;51.976;7.594;2023-06-22T05:48:02;101013.94;;;30.80;44.07
20889;BME280;10604;51.976;7.594;2023-06-22T05:50:27;101013.25;;;30.61;43.74
20889;BME280;10604;51.976;7.594;2023-06-22T05:52:52;101014.19;;;30.28;44.55
20889;BME280;10604;51.976;7.594;2023-06-22T05:55:17;101015.22;;;30.43;44.40
20889;BME280;10604;51.976;7.594;2023-06-22T05:57:44;101013.16;;;30.29;44.70
20889;BME280;10604;51.976;7.594;2023-06-22T06:00:09;101017.69;;;30.54;44.50
20889;BME280;10604;51.976;7.594;2023-06-22T06:02:36;101013.16;;;30.29;44.49
20889;BME280;10604;51.976;7.594;2023-06-22T06:05:02;101014.16;;;30.20;45.05
20889;BME280;10604;51.976;7.594;2023-06-22T06:07:28;101017.44;;;30.31;44.92
20889;BME280;10604;51.976;7.594;2023-06-22T06:09:56;101009.78;;;30.43;45.43
20889;BME280;10604;51.976;7.594;2023-06-22T06:12:24;101015.97;;;30.53;44.96
20889;BME280;10604;51.976;7.594;2023-06-22T06:14:49;101027.63;;;30.29;44.70
20889;BME280;10604;51.976;7.594;2023-06-22T06:17:20;101029.53;;;30.45;45.25
20889;BME280;10604;51.976;7.594;2023-06-22T06:19:45;101022.34;;;30.28;45.48
20889;BME280;10604;51.976;7.594;2023-06-22T06:22:10;101022.66;;;30.17;45.15
20889;BME280;10604;51.976;7.594;2023-06-22T06:24:38;101012.50;;;30.35;45.63
20889;BME280;10604;51.976;7.594;2023-06-22T06:27:03;101017.94;;;30.43;45.53
20889;BME280;10604;51.976;7.594;2023-06-22T06:29:29;101030.03;;;30.49;45.18
20889;BME280;10604;51.976;7.594;2023-06-22T06:31:55;101022.69;;;30.25;45.57
20889;BME280;10604;51.976;7.594;2023-06-22T06:34:20;101026.72;;;30.13;46.10
20889;BME280;10604;51.976;7.594;2023-06-22T06:36:45;101032.38;;;30.27;45.71
20889;BME280;10604;51.976;7.594;2023-06-22T06:39:12;101044.22;;;30.52;44.88
20889;BME280;10604;51.976;7.594;2023-06-22T06:41:37;101045.09;;;30.03;45.89
20889;BME280;10604;51.976;7.594;2023-06-22T06:44:02;101044.09;;;30.12;45.09
20889;BME280;10604;51.976;7.594;2023-06-22T06:46:28;101044.84;;;30.38;45.48
20889;BME280;10604;51.976;7.594;2023-06-22T06:48:53;101043.31;;;30.44;45.34
20889;BME280;10604;51.976;7.594;2023-06-22T06:51:18;101035.84;;;30.46;45.27
20889;BME280;10604;51.976;7.594;2023-06-22T06:53:43;101035.00;;;30.45;45.40
20889;BME280;10604;51.976;7.594;2023-06-22T06:56:08;101033.00;;;30.80;45.77
20889;BME280;10604;51.976;7.594;2023-06-22T06:58:35;101036.75;;;30.95;44.56
20889;BME280;10604;51.976;7.594;2023-06-22T07:01:01;101038.09;;;30.99;44.35
20889;BME280;10604;51.976;7.594;2023-06-22T07:03:27;101040.88;;;31.07;43.85
20889;BME280;10604;51.976;7.594;2023-06-22T07:05:53;101034.72;;;30.97;44.32
20889;BME280;10604;51.976;7.594;2023-06-22T07:08:18;101032.34;;;31.18;44.82
20889;BME280;10604;51.976;7.594;2023-06-22T07:10:43;101026.13;;;31.57;43.07
20889;BME280;10604;51.976;7.594;2023-06-22T07:13:08;101025.50;;;31.38;43.92
20889;BME280;10604;51.976;7.594;2023-06-22T07:15:34;101026.19;;;31.32;44.04
20889;BME280;10604;51.976;7.594;2023-06-22T07:17:59;101022.63;;;31.16;44.49
20889;BME280;10604;51.976;7.594;2023-06-22T07:20:24;101018.31;;;31.45;43.80
20889;BME280;10604;51.976;7.594;2023-06-22T07:22:49;101017.94;;;31.57;43.90
20889;BME280;10604;51.976;7.594;2023-06-22T07:25:15;101020.94;;;31.15;44.22
20889;BME280;10604;51.976;7.594;2023-06-22T07:27:44;101005.41;;;30.99;44.60
20889;BME280;10604;51.976;7.594;2023-06-22T07:30:10;100999.94;;;30.91;44.63
20889;BME280;10604;51.976;7.594;2023-06-22T07:32:36;101002.50;;;31.00;45.00
20889;BME280;10604;51.976;7.594;2023-06-22T07:35:02;101004.38;;;30.92;44.81
20889;BME280;10604;51.976;7.594;2023-06-22T07:37:27;100995.22;;;30.68;45.20
20889;BME280;10604;51.976;7.594;2023-06-22T07:39:53;100999.63;;;30.86;45.01
20889;BME280;10604;51.976;7.594;2023-06-22T07:42:23;100989.75;;;30.93;45.15
20889;BME280;10604;51.976;7.594;2023-06-22T07:44:49;100997.56;;;31.04;44.50
20889;BME280;10604;51.976;7.594;2023-06-22T07:47:16;100990.09;;;30.82;44.74
20889;BME280;10604;51.976;7.594;2023-06-22T07:49:42;100995.88;;;31.03;45.13
20889;BME280;10604;51.976;7.594;2023-06-22T07:52:09;100995.03;;;30.86;45.71
20889;BME280;10604;51.976;7.594;2023-06-22T07:54:34;101005.94;;;30.86;45.50
20889;BME280;10604;51.976;7.594;2023-06-22T07:56:59;100994.53;;;30.74;45.82
20889;BME280;10604;51.976;7.594;2023-06-22T07:59:25;100993.75;;;31.45;44.05
20889;BME280;10604;51.976;7.594;2023-06-22T08:01:50;101002.03;;;30.81;44.69
20889;BME280;10604;51.976;7.594;2023-06-22T08:04:15;100996.91;;;30.78;45.04
20889;BME280;10604;51.976;7.594;2023-06-22T08:06:41;100997.59;;;30.71;45.68
20889;BME280;10604;51.976;7.594;2023-06-22T08:09:06;100991.28;;;30.55;46.58
20889;BME280;10604;51.976;7.594;2023-06-22T08:11:31;100982.63;;;30.76;46.27
20889;BME280;10604;51.976;7.594;2023-06-22T08:13:57;100990.03;;;31.38;45.07
20889;BME280;10604;51.976;7.594;2023-06-22T08:16:23;100984.97;;;31.03;45.39
20889;BME280;10604;51.976;7.594;2023-06-22T08:18:48;100987.03;;;30.68;46.72
20889;BME280;10604;51.976;7.594;2023-06-22T08:21:13;100988.06;;;30.76;47.21
20889;BME280;10604;51.976;7.594;2023-06-22T08:23:39;100978.66;;;30.86;46.49
20889;BME280;10604;51.976;7.594;2023-06-22T08:26:04;100984.31;;;31.09;46.10
20889;BME280;10604;51.976;7.594;2023-06-22T08:28:29;100983.97;;;30.96;46.49
20889;BME280;10604;51.976;7.594;2023-06-22T08:30:54;100973.38;;;31.25;45.75
20889;BME280;10604;51.976;7.594;2023-06-22T08:33:20;100967.03;;;31.33;45.47
20889;BME280;10604;51.976;7.594;2023-06-22T08:35:48;100978.13;;;31.31;45.06
20889;BME280;10604;51.976;7.594;2023-06-22T08:38:14;100968.25;;;31.30;45.59
20889;BME280;10604;51.976;7.594;2023-06-22T08:40:40;100967.53;;;31.36;45.19
20889;BME280;10604;51.976;7.594;2023-06-22T08:43:05;100958.22;;;31.06;45.40
20889;BME280;10604;51.976;7.594;2023-06-22T08:45:31;100945.72;;;31.28;45.75
20889;BME280;10604;51.976;7.594;2023-06-22T08:47:56;100935.06;;;31.58;44.57
20889;BME280;10604;51.976;7.594;2023-06-22T08:50:22;100927.22;;;31.63;44.62
20889;BME280;10604;51.976;7.594;2023-06-22T08:52:47;100935.47;;;32.16;43.73
20889;BME280;10604;51.976;7.594;2023-06-22T08:55:12;100933.41;;;32.18;43.22
20889;BME280;10604;51.976;7.594;2023-06-22T08:57:39;100935.34;;;32.33;43.22
20889;BME280;10604;51.976;7.594;2023-06-22T09:00:07;100940.47;;;31.74;43.89
20889;BME280;10604;51.976;7.594;2023-06-22T09:02:43;100935.66;;;32.07;44.40
20889;BME280;10604;51.976;7.594;2023-06-22T09:05:08;100930.00;;;31.85;43.95
20889;BME280;10604;51.976;7.594;2023-06-22T09:07:33;100922.53;;;31.79;44.29
20889;BME280;10604;51.976;7.594;2023-06-22T09:09:59;100926.78;;;31.82;44.22
20889;BME280;10604;51.976;7.594;2023-06-22T09:12:26;100918.00;;;32.25;43.78
20889;BME280;10604;51.976;7.594;2023-06-22T09:14:52;100914.59;;;32.46;43.69
20889;BME280;10604;51.976;7.594;2023-06-22T09:17:18;100902.25;;;33.02;43.37
20889;BME280;10604;51.976;7.594;2023-06-22T09:19:43;100899.16;;;33.20;42.48
20889;BME280;10604;51.976;7.594;2023-06-22T09:22:08;100892.94;;;33.41;42.33
20889;BME280;10604;51.976;7.594;2023-06-22T09:24:34;100891.63;;;33.37;41.84
20889;BME280;10604;51.976;7.594;2023-06-22T09:26:59;100890.13;;;33.70;41.86
20889;BME280;10604;51.976;7.594;2023-06-22T09:29:24;100882.75;;;33.86;41.09
20889;BME280;10604;51.976;7.594;2023-06-22T09:31:50;100881.03;;;33.34;41.78
20889;BME280;10604;51.976;7.594;2023-06-22T09:34:15;100877.66;;;34.46;40.19
20889;BME280;10604;51.976;7.594;2023-06-22T09:36:45;100879.63;;;34.74;40.10
20889;BME280;10604;51.976;7.594;2023-06-22T09:39:10;100890.75;;;34.44;40.31
20889;BME280;10604;51.976;7.594;2023-06-22T09:41:36;100890.34;;;34.47;40.03
20889;BME280;10604;51.976;7.594;2023-06-22T09:44:01;100890.72;;;34.66;39.71
20889;BME280;10604;51.976;7.594;2023-06-22T09:46:26;100883.94;;;34.40;39.43
20889;BME280;10604;51.976;7.594;2023-06-22T09:48:54;100883.66;;;35.12;38.99
20889;BME280;10604;51.976;7.594;2023-06-22T09:51:19;100892.09;;;35.17;38.31
20889;BME280;10604;51.976;7.594;2023-06-22T09:53:46;100891.91;;;35.53;38.20
20889;BME280;10604;51.976;7.594;2023-06-22T09:56:11;100903.50;;;35.49;38.22
20889;BME280;10604;51.976;7.594;2023-06-22T09:58:41;100904.09;;;35.38;37.51
20889;BME280;10604;51.976;7.594;2023-06-22T10:01:06;100907.88;;;35.37;38.56
20889;BME280;10604;51.976;7.594;2023-06-22T10:03:31;100905.13;;;35.02;38.64
20889;BME280;10604;51.976;7.594;2023-06-22T10:05:57;100902.19;;;34.54;39.53
20889;BME280;10604;51.976;7.594;2023-06-22T10:08:22;100894.47;;;34.86;38.88
20889;BME280;10604;51.976;7.594;2023-06-22T10:10:48;100893.69;;;34.99;38.59
20889;BME280;10604;51.976;7.594;2023-06-22T10:13:13;100891.50;;;35.15;38.73
20889;BME280;10604;51.976;7.594;2023-06-22T10:15:40;100886.97;;;35.01;38.97
20889;BME280;10604;51.976;7.594;2023-06-22T10:18:06;100888.84;;;35.28;38.82
20889;BME280;10604;51.976;7.594;2023-06-22T10:20:31;100882.94;;;35.31;38.97
20889;BME280;10604;51.976;7.594;2023-06-22T10:22:58;100877.13;;;35.61;38.34
20889;BME280;10604;51.976;7.594;2023-06-22T10:25:23;100878.91;;;35.27;38.90
20889;BME280;10604;51.976;7.594;2023-06-22T10:27:49;100873.66;;;35.32;38.71
20889;BME280;10604;51.976;7.594;2023-06-22T10:30:14;100869.44;;;35.97;37.88
20889;BME280;10604;51.976;7.594;2023-06-22T10:32:39;100882.63;;;36.55;37.08
20889;BME280;10604;51.976;7.594;2023-06-22T10:35:05;100877.28;;;35.87;37.04
20889;BME280;10604;51.976;7.594;2023-06-22T10:37:30;100862.53;;;35.54;37.82
20889;BME280;10604;51.976;7.594;2023-06-22T10:39:56;100855.31;;;36.00;36.98
20889;BME280;10604;51.976;7.594;2023-06-22T10:42:23;100851.34;;;36.23;36.67
20889;BME280;10604;51.976;7.594;2023-06-22T10:44:48;100852.75;;;35.92;36.78
20889;BME280;10604;51.976;7.594;2023-06-22T10:47:14;100846.00;;;35.95;36.87
20889;BME280;10604;51.976;7.594;2023-06-22T10:49:40;100848.41;;;35.57;37.53
20889;BME280;10604;51.976;7.594;2023-06-22T10:52:06;100860.72;;;35.74;37.66
20889;BME280;10604;51.976;7.594;2023-06-22T10:54:32;100840.91;;;35.85;37.51
20889;BME280;10604;51.976;7.594;2023-06-22T10:56:58;100837.50;;;35.77;37.54
20889;BME280;10604;51.976;7.594;2023-06-22T10:59:23;100832.75;;;35.44;38.01
20889;BME280;10604;51.976;7.594;2023-06-22T11:01:50;100831.31;;;35.68;37.78
20889;BME280;10604;51.976;7.594;2023-06-22T11:04:16;100829.09;;;34.96;38.88
20889;BME280;10604;51.976;7.594;2023-06-22T11:06:42;100831.53;;;34.78;39.45
20889;BME280;10604;51.976;7.594;2023-06-22T11:09:08;100822.59;;;35.04;39.21
20889;BME280;10604;51.976;7.594;2023-06-22T11:11:34;100825.13;;;35.40;38.46
20889;BME280;10604;51.976;7.594;2023-06-22T11:13:59;100817.13;;;35.04;39.08
20889;BME280;10604;51.976;7.594;2023-06-22T11:16:24;100818.91;;;34.83;39.71
20889;BME280;10604;51.976;7.594;2023-06-22T11:18:50;100815.19;;;34.35;39.89
20889;BME280;10604;51.976;7.594;2023-06-22T11:21:15;100808.25;;;34.95;39.43
20889;BME280;10604;51.976;7.594;2023-06-22T11:23:41;100800.16;;;35.21;39.24
20889;BME280;10604;51.976;7.594;2023-06-22T11:26:07;100803.19;;;35.53;38.67
20889;BME280;10604;51.976;7.594;2023-06-22T11:28:32;100808.81;;;36.32;37.92
20889;BME280;10604;51.976;7.594;2023-06-22T11:30:57;100806.38;;;35.63;38.06
20889;BME280;10604;51.976;7.594;2023-06-22T11:33:22;100796.44;;;35.49;38.29
20889;BME280;10604;51.976;7.594;2023-06-22T11:35:49;100791.84;;;35.15;38.63
20889;BME280;10604;51.976;7.594;2023-06-22T11:38:14;100795.97;;;35.39;39.07
20889;BME280;10604;51.976;7.594;2023-06-22T11:40:39;100786.78;;;35.18;39.33
20889;BME280;10604;51.976;7.594;2023-06-22T11:43:05;100791.34;;;35.46;39.16
20889;BME280;10604;51.976;7.594;2023-06-22T11:45:30;100794.31;;;35.03;39.28
20889;BME280;10604;51.976;7.594;2023-06-22T11:47:55;100796.97;;;34.83;39.54
20889;BME280;10604;51.976;7.594;2023-06-22T11:53:04;100812.84;;;35.29;38.79
20889;BME280;10604;51.976;7.594;2023-06-22T11:55:30;100818.38;;;34.67;39.65
20889;BME280;10604;51.976;7.594;2023-06-22T11:57:56;100822.59;;;34.41;40.20
20889;BME280;10604;51.976;7.594;2023-06-22T12:00:24;100823.41;;;34.14;40.82
20889;BME280;10604;51.976;7.594;2023-06-22T12:02:50;100819.81;;;33.71;41.82
20889;BME280;10604;51.976;7.594;2023-06-22T12:05:17;100825.50;;;34.12;41.51
20889;BME280;10604;51.976;7.594;2023-06-22T12:07:43;100827.38;;;33.90;41.14
20889;BME280;10604;51.976;7.594;2023-06-22T12:10:08;100818.31;;;34.11;41.67
20889;BME280;10604;51.976;7.594;2023-06-22T12:12:33;100807.34;;;33.68;42.57
20889;BME280;10604;51.976;7.594;2023-06-22T12:14:58;100799.19;;;33.54;41.86
20889;BME280;10604;51.976;7.594;2023-06-22T12:17:28;100807.84;;;33.36;42.97
20889;BME280;10604;51.976;7.594;2023-06-22T12:19:53;100800.25;;;32.87;43.70
20889;BME280;10604;51.976;7.594;2023-06-22T12:22:18;100798.41;;;32.65;44.28
20889;BME280;10604;51.976;7.594;2023-06-22T12:24:44;100807.19;;;32.46;44.38
20889;BME280;10604;51.976;7.594;2023-06-22T12:27:09;100804.53;;;32.52;44.35
20889;BME280;10604;51.976;7.594;2023-06-22T12:29:35;100799.63;;;32.10;44.44
20889;BME280;10604;51.976;7.594;2023-06-22T12:32:00;100804.94;;;32.26;44.85
20889;BME280;10604;51.976;7.594;2023-06-22T12:34:25;100807.63;;;32.35;45.14
20889;BME280;10604;51.976;7.594;2023-06-22T12:36:50;100813.72;;;32.22;46.32
20889;BME280;10604;51.976;7.594;2023-06-22T12:39:16;100813.81;;;32.06;48.73
20889;BME280;10604;51.976;7.594;2023-06-22T12:41:41;100818.34;;;31.76;47.95
20889;BME280;10604;51.976;7.594;2023-06-22T12:44:06;100821.88;;;31.54;49.46
20889;BME280;10604;51.976;7.594;2023-06-22T12:46:31;100822.47;;;32.17;49.23
20889;BME280;10604;51.976;7.594;2023-06-22T12:49:03;100821.09;;;32.13;49.33
20889;BME280;10604;51.976;7.594;2023-06-22T12:51:29;100821.47;;;31.57;51.97
20889;BME280;10604;51.976;7.594;2023-06-22T12:53:56;100815.63;;;31.06;53.64
20889;BME280;10604;51.976;7.594;2023-06-22T12:56:21;100812.25;;;30.88;56.40
20889;BME280;10604;51.976;7.594;2023-06-22T12:58:46;100806.81;;;30.88;57.13